sensor_id;sensor_type;location;lat;lon;timestamp;pressure;altitude;pressure_sealevel;temperature
40624;BMP280;26325;48.594;11.650;2023-02-28T00:00:20;97250.91;;;-0.65
40624;BMP280;26325;48.594;11.650;2023-02-28T00:02:47;97236.13;;;-0.77
40624;BMP280;26325;48.594;11.650;2023-02-28T00:05:15;97244.50;;;-0.84
40624;BMP280;26325;48.594;11.650;2023-02-28T00:07:41;97234.06;;;-0.81
40624;BMP280;26325;48.594;11.650;2023-02-28T00:10:18;97242.31;;;-0.79
40624;BMP280;26325;48.594;11.650;2023-02-28T00:13:06;97241.38;;;-0.71
40624;BMP280;26325;48.594;11.650;2023-02-28T00:15:32;97226.91;;;-0.86
40624;BMP280;26325;48.594;11.650;2023-02-28T00:17:58;97240.28;;;-0.60
40624;BMP280;26325;48.594;11.650;2023-02-28T00:20:24;97227.25;;;-0.73
40624;BMP280;26325;48.594;11.650;2023-02-28T00:22:51;97227.69;;;-0.85
40624;BMP280;26325;48.594;11.650;2023-02-28T00:25:20;97220.56;;;-0.90
40624;BMP280;26325;48.594;11.650;2023-02-28T00:27:46;97216.28;;;-0.89
40624;BMP280;26325;48.594;11.650;2023-02-28T00:30:14;97210.25;;;-0.96
40624;BMP280;26325;48.594;11.650;2023-02-28T00:32:40;97213.72;;;-1.05
40624;BMP280;26325;48.594;11.650;2023-02-28T00:35:08;97222.28;;;-0.98
40624;BMP280;26325;48.594;11.650;2023-02-28T00:37:34;97210.91;;;-0.86
40624;BMP280;26325;48.594;11.650;2023-02-28T00:40:00;97215.34;;;-0.88
40624;BMP280;26325;48.594;11.650;2023-02-28T00:42:25;97229.44;;;-0.94
40624;BMP280;26325;48.594;11.650;2023-02-28T00:44:53;97212.28;;;-1.07
40624;BMP280;26325;48.594;11.650;2023-02-28T00:47:19;97215.44;;;-1.13
40624;BMP280;26325;48.594;11.650;2023-02-28T00:49:44;97209.59;;;-1.14
40624;BMP280;26325;48.594;11.650;2023-02-28T00:52:12;97216.38;;;-1.22
40624;BMP280;26325;48.594;11.650;2023-02-28T00:54:38;97212.28;;;-1.15
40624;BMP280;26325;48.594;11.650;2023-02-28T00:57:03;97216.53;;;-1.23
40624;BMP280;26325;48.594;11.650;2023-02-28T00:59:29;97214.00;;;-1.15
40624;BMP280;26325;48.594;11.650;2023-02-28T01:02:05;97217.31;;;-1.23
40624;BMP280;26325;48.594;11.650;2023-02-28T01:04:31;97205.94;;;-1.11
40624;BMP280;26325;48.594;11.650;2023-02-28T01:06:56;97210.34;;;-1.21
40624;BMP280;26325;48.594;11.650;2023-02-28T01:09:22;97219.72;;;-1.21
40624;BMP280;26325;48.594;11.650;2023-02-28T01:11:50;97205.13;;;-1.19
40624;BMP280;26325;48.594;11.650;2023-02-28T01:14:16;97201.31;;;-1.23
40624;BMP280;26325;48.594;11.650;2023-02-28T01:16:42;97206.09;;;-1.13
40624;BMP280;26325;48.594;11.650;2023-02-28T01:19:08;97201.44;;;-1.33
40624;BMP280;26325;48.594;11.650;2023-02-28T01:21:36;97200.31;;;-1.38
40624;BMP280;26325;48.594;11.650;2023-02-28T01:24:02;97202.53;;;-1.35
40624;BMP280;26325;48.594;11.650;2023-02-28T01:26:28;97191.47;;;-1.26
40624;BMP280;26325;48.594;11.650;2023-02-28T01:28:54;97198.41;;;-1.36
40624;BMP280;26325;48.594;11.650;2023-02-28T01:31:20;97186.28;;;-1.17
40624;BMP280;26325;48.594;11.650;2023-02-28T01:33:48;97195.91;;;-1.28
40624;BMP280;26325;48.594;11.650;2023-02-28T01:36:19;97189.72;;;-1.33
40624;BMP280;26325;48.594;11.650;2023-02-28T01:38:45;97187.94;;;-1.41
40624;BMP280;26325;48.594;11.650;2023-02-28T01:41:28;97198.91;;;-1.33
40624;BMP280;26325;48.594;11.650;2023-02-28T01:44:55;97187.94;;;-1.41
40624;BMP280;26325;48.594;11.650;2023-02-28T01:46:49;97196.50;;;-1.42
40624;BMP280;26325;48.594;11.650;2023-02-28T01:49:15;97191.59;;;-1.35
40624;BMP280;26325;48.594;11.650;2023-02-28T01:54:18;97197.59;;;-1.44
40624;BMP280;26325;48.594;11.650;2023-02-28T01:57:10;97184.88;;;-1.60
40624;BMP280;26325;48.594;11.650;2023-02-28T01:59:48;97185.22;;;-1.55
40624;BMP280;26325;48.594;11.650;2023-02-28T02:02:18;97186.97;;;-1.48
40624;BMP280;26325;48.594;11.650;2023-02-28T02:07:16;97182.50;;;-1.53
40624;BMP280;26325;48.594;11.650;2023-02-28T02:09:41;97188.22;;;-1.52
40624;BMP280;26325;48.594;11.650;2023-02-28T02:17:34;97191.25;;;-1.48
40624;BMP280;26325;48.594;11.650;2023-02-28T02:26:07;97190.47;;;-1.41
40624;BMP280;26325;48.594;11.650;2023-02-28T02:31:27;97178.78;;;-1.34
40624;BMP280;26325;48.594;11.650;2023-02-28T02:37:09;97185.03;;;-1.53
40624;BMP280;26325;48.594;11.650;2023-02-28T02:45:37;97190.31;;;-1.47
40624;BMP280;26325;48.594;11.650;2023-02-28T02:48:06;97195.19;;;-1.53
40624;BMP280;26325;48.594;11.650;2023-02-28T02:50:38;97193.25;;;-1.59
40624;BMP280;26325;48.594;11.650;2023-02-28T02:53:05;97186.59;;;-1.60
40624;BMP280;26325;48.594;11.650;2023-02-28T02:55:35;97188.59;;;-1.72
40624;BMP280;26325;48.594;11.650;2023-02-28T02:58:03;97189.78;;;-1.58
40624;BMP280;26325;48.594;11.650;2023-02-28T03:00:33;97190.41;;;-1.64
40624;BMP280;26325;48.594;11.650;2023-02-28T03:03:01;97194.78;;;-1.74
40624;BMP280;26325;48.594;11.650;2023-02-28T03:05:44;97193.22;;;-1.67
40624;BMP280;26325;48.594;11.650;2023-02-28T03:08:11;97191.59;;;-1.76
40624;BMP280;26325;48.594;11.650;2023-02-28T03:10:44;97194.28;;;-1.77
40624;BMP280;26325;48.594;11.650;2023-02-28T03:16:13;97187.69;;;-1.63
40624;BMP280;26325;48.594;11.650;2023-02-28T03:18:51;97187.38;;;-1.68
40624;BMP280;26325;48.594;11.650;2023-02-28T03:22:12;97185.34;;;-1.64
40624;BMP280;26325;48.594;11.650;2023-02-28T03:27:03;97182.44;;;-1.69
40624;BMP280;26325;48.594;11.650;2023-02-28T03:29:37;97189.06;;;-1.76
40624;BMP280;26325;48.594;11.650;2023-02-28T03:32:17;97182.31;;;-1.68
40624;BMP280;26325;48.594;11.650;2023-02-28T03:34:50;97185.88;;;-1.78
40624;BMP280;26325;48.594;11.650;2023-02-28T03:37:20;97184.91;;;-1.85
40624;BMP280;26325;48.594;11.650;2023-02-28T03:39:57;97190.78;;;-1.84
40624;BMP280;26325;48.594;11.650;2023-02-28T03:42:27;97190.88;;;-1.93
40624;BMP280;26325;48.594;11.650;2023-02-28T03:44:58;97186.16;;;-1.89
40624;BMP280;26325;48.594;11.650;2023-02-28T03:47:39;97189.00;;;-1.91
40624;BMP280;26325;48.594;11.650;2023-02-28T03:50:14;97183.56;;;-1.96
40624;BMP280;26325;48.594;11.650;2023-02-28T03:52:51;97188.06;;;-1.90
40624;BMP280;26325;48.594;11.650;2023-02-28T03:55:18;97188.16;;;-2.00
40624;BMP280;26325;48.594;11.650;2023-02-28T04:00:31;97194.59;;;-2.05
40624;BMP280;26325;48.594;11.650;2023-02-28T04:02:58;97187.19;;;-2.07
40624;BMP280;26325;48.594;11.650;2023-02-28T04:05:23;97193.00;;;-2.06
40624;BMP280;26325;48.594;11.650;2023-02-28T04:07:49;97188.25;;;-2.09
40624;BMP280;26325;48.594;11.650;2023-02-28T04:10:17;97192.06;;;-2.05
40624;BMP280;26325;48.594;11.650;2023-02-28T04:12:46;97200.59;;;-2.06
40624;BMP280;26325;48.594;11.650;2023-02-28T04:15:11;97193.31;;;-2.09
40624;BMP280;26325;48.594;11.650;2023-02-28T04:17:37;97195.59;;;-2.23
40624;BMP280;26325;48.594;11.650;2023-02-28T04:20:03;97205.94;;;-2.17
40624;BMP280;26325;48.594;11.650;2023-02-28T04:22:29;97204.69;;;-2.13
40624;BMP280;26325;48.594;11.650;2023-02-28T04:24:54;97210.84;;;-2.15
40624;BMP280;26325;48.594;11.650;2023-02-28T04:27:20;97204.81;;;-2.14
40624;BMP280;26325;48.594;11.650;2023-02-28T04:29:46;97203.34;;;-2.25
40624;BMP280;26325;48.594;11.650;2023-02-28T04:32:13;97206.50;;;-2.23
40624;BMP280;26325;48.594;11.650;2023-02-28T04:34:39;97206.72;;;-2.16
40624;BMP280;26325;48.594;11.650;2023-02-28T04:37:04;97207.72;;;-2.09
40624;BMP280;26325;48.594;11.650;2023-02-28T04:39:30;97202.16;;;-2.13
40624;BMP280;26325;48.594;11.650;2023-02-28T04:41:55;97210.47;;;-2.20
40624;BMP280;26325;48.594;11.650;2023-02-28T04:44:22;97213.22;;;-2.14
40624;BMP280;26325;48.594;11.650;2023-02-28T04:46:48;97214.16;;;-2.15
40624;BMP280;26325;48.594;11.650;2023-02-28T04:49:14;97214.94;;;-2.14
40624;BMP280;26325;48.594;11.650;2023-02-28T04:51:39;97221.91;;;-2.16
40624;BMP280;26325;48.594;11.650;2023-02-28T04:54:08;97216.19;;;-2.18
40624;BMP280;26325;48.594;11.650;2023-02-28T04:56:36;97214.69;;;-2.28
40624;BMP280;26325;48.594;11.650;2023-02-28T04:59:03;97214.75;;;-2.21
40624;BMP280;26325;48.594;11.650;2023-02-28T05:01:31;97219.81;;;-2.21
40624;BMP280;26325;48.594;11.650;2023-02-28T05:04:08;97217.94;;;-2.19
40624;BMP280;26325;48.594;11.650;2023-02-28T05:06:34;97221.69;;;-2.23
40624;BMP280;26325;48.594;11.650;2023-02-28T05:09:00;97218.38;;;-2.23
40624;BMP280;26325;48.594;11.650;2023-02-28T05:11:28;97217.88;;;-2.27
40624;BMP280;26325;48.594;11.650;2023-02-28T05:13:55;97218.22;;;-2.22
40624;BMP280;26325;48.594;11.650;2023-02-28T05:16:20;97216.63;;;-2.23
40624;BMP280;26325;48.594;11.650;2023-02-28T05:18:46;97223.88;;;-2.28
40624;BMP280;26325;48.594;11.650;2023-02-28T05:21:36;97220.84;;;-2.31
40624;BMP280;26325;48.594;11.650;2023-02-28T05:24:09;97225.16;;;-2.24
40624;BMP280;26325;48.594;11.650;2023-02-28T05:26:40;97217.56;;;-2.24
40624;BMP280;26325;48.594;11.650;2023-02-28T05:29:05;97227.34;;;-2.28
40624;BMP280;26325;48.594;11.650;2023-02-28T05:31:36;97223.22;;;-2.29
40624;BMP280;26325;48.594;11.650;2023-02-28T05:34:02;97230.69;;;-2.28
40624;BMP280;26325;48.594;11.650;2023-02-28T05:36:31;97229.94;;;-2.21
40624;BMP280;26325;48.594;11.650;2023-02-28T05:38:59;97236.47;;;-2.35
40624;BMP280;26325;48.594;11.650;2023-02-28T05:41:29;97230.03;;;-2.30
40624;BMP280;26325;48.594;11.650;2023-02-28T05:43:57;97239.94;;;-2.36
40624;BMP280;26325;48.594;11.650;2023-02-28T05:46:25;97238.63;;;-2.40
40624;BMP280;26325;48.594;11.650;2023-02-28T05:48:51;97248.41;;;-2.45
40624;BMP280;26325;48.594;11.650;2023-02-28T05:51:25;97245.81;;;-2.36
40624;BMP280;26325;48.594;11.650;2023-02-28T05:53:52;97243.78;;;-2.32
40624;BMP280;26325;48.594;11.650;2023-02-28T05:56:17;97234.59;;;-2.33
40624;BMP280;26325;48.594;11.650;2023-02-28T05:58:48;97249.34;;;-2.46
40624;BMP280;26325;48.594;11.650;2023-02-28T06:01:34;97239.94;;;-2.36
40624;BMP280;26325;48.594;11.650;2023-02-28T06:04:00;97252.25;;;-2.41
40624;BMP280;26325;48.594;11.650;2023-02-28T06:06:26;97259.25;;;-2.35
40624;BMP280;26325;48.594;11.650;2023-02-28T06:08:52;97245.06;;;-2.28
40624;BMP280;26325;48.594;11.650;2023-02-28T06:11:17;97247.78;;;-2.22
40624;BMP280;26325;48.594;11.650;2023-02-28T06:13:45;97254.03;;;-2.17
40624;BMP280;26325;48.594;11.650;2023-02-28T06:16:10;97253.38;;;-2.19
40624;BMP280;26325;48.594;11.650;2023-02-28T06:18:43;97259.72;;;-2.15
40624;BMP280;26325;48.594;11.650;2023-02-28T06:21:12;97253.09;;;-2.16
40624;BMP280;26325;48.594;11.650;2023-02-28T06:23:37;97255.94;;;-2.11
40624;BMP280;26325;48.594;11.650;2023-02-28T06:26:05;97251.59;;;-2.01
40624;BMP280;26325;48.594;11.650;2023-02-28T06:28:31;97260.53;;;-1.90
40624;BMP280;26325;48.594;11.650;2023-02-28T06:30:57;97259.66;;;-1.81
40624;BMP280;26325;48.594;11.650;2023-02-28T06:33:22;97264.28;;;-1.69
40624;BMP280;26325;48.594;11.650;2023-02-28T06:35:51;97263.50;;;-1.69
40624;BMP280;26325;48.594;11.650;2023-02-28T06:38:17;97257.84;;;-0.67
40624;BMP280;26325;48.594;11.650;2023-02-28T06:40:43;97246.28;;;1.37
40624;BMP280;26325;48.594;11.650;2023-02-28T06:43:09;97260.56;;;2.96
40624;BMP280;26325;48.594;11.650;2023-02-28T06:45:43;97241.75;;;4.74
40624;BMP280;26325;48.594;11.650;2023-02-28T06:48:09;97243.75;;;6.20
40624;BMP280;26325;48.594;11.650;2023-02-28T06:50:35;97242.41;;;7.60
40624;BMP280;26325;48.594;11.650;2023-02-28T06:53:01;97237.22;;;8.03
40624;BMP280;26325;48.594;11.650;2023-02-28T06:55:26;97246.44;;;6.88
40624;BMP280;26325;48.594;11.650;2023-02-28T06:57:51;97244.13;;;6.74
40624;BMP280;26325;48.594;11.650;2023-02-28T07:00:17;97232.84;;;7.67
40624;BMP280;26325;48.594;11.650;2023-02-28T07:02:43;97241.34;;;8.04
40624;BMP280;26325;48.594;11.650;2023-02-28T07:05:08;97229.19;;;9.47
40624;BMP280;26325;48.594;11.650;2023-02-28T07:07:46;97225.66;;;10.27
40624;BMP280;26325;48.594;11.650;2023-02-28T07:10:13;97217.47;;;10.98
40624;BMP280;26325;48.594;11.650;2023-02-28T07:12:42;97223.78;;;11.51
40624;BMP280;26325;48.594;11.650;2023-02-28T07:15:09;97221.31;;;12.48
40624;BMP280;26325;48.594;11.650;2023-02-28T07:17:37;97229.53;;;12.72
40624;BMP280;26325;48.594;11.650;2023-02-28T07:20:04;97231.69;;;12.16
40624;BMP280;26325;48.594;11.650;2023-02-28T07:22:32;97231.28;;;12.23
40624;BMP280;26325;48.594;11.650;2023-02-28T07:24:58;97234.78;;;11.58
40624;BMP280;26325;48.594;11.650;2023-02-28T07:27:23;97228.06;;;11.73
40624;BMP280;26325;48.594;11.650;2023-02-28T07:29:51;97238.16;;;10.86
40624;BMP280;26325;48.594;11.650;2023-02-28T07:32:20;97220.72;;;11.04
40624;BMP280;26325;48.594;11.650;2023-02-28T07:34:46;97229.81;;;12.11
40624;BMP280;26325;48.594;11.650;2023-02-28T07:37:12;97230.66;;;12.17
40624;BMP280;26325;48.594;11.650;2023-02-28T07:39:37;97241.38;;;11.65
40624;BMP280;26325;48.594;11.650;2023-02-28T07:42:06;97241.94;;;10.28
40624;BMP280;26325;48.594;11.650;2023-02-28T07:44:34;97237.47;;;9.84
40624;BMP280;26325;48.594;11.650;2023-02-28T07:47:00;97246.69;;;9.45
40624;BMP280;26325;48.594;11.650;2023-02-28T07:49:28;97252.22;;;8.54
40624;BMP280;26325;48.594;11.650;2023-02-28T07:51:53;97254.25;;;8.70
40624;BMP280;26325;48.594;11.650;2023-02-28T07:54:19;97254.47;;;8.51
40624;BMP280;26325;48.594;11.650;2023-02-28T07:56:51;97263.94;;;7.60
40624;BMP280;26325;48.594;11.650;2023-02-28T07:59:20;97262.84;;;6.94
40624;BMP280;26325;48.594;11.650;2023-02-28T08:01:52;97265.13;;;7.21
40624;BMP280;26325;48.594;11.650;2023-02-28T08:04:18;97269.63;;;6.44
40624;BMP280;26325;48.594;11.650;2023-02-28T08:06:43;97271.78;;;6.47
40624;BMP280;26325;48.594;11.650;2023-02-28T08:09:11;97274.81;;;5.60
40624;BMP280;26325;48.594;11.650;2023-02-28T08:11:40;97283.06;;;4.97
40624;BMP280;26325;48.594;11.650;2023-02-28T08:14:06;97275.69;;;5.28
40624;BMP280;26325;48.594;11.650;2023-02-28T08:16:34;97280.47;;;5.43
40624;BMP280;26325;48.594;11.650;2023-02-28T08:18:59;97268.44;;;4.92
40624;BMP280;26325;48.594;11.650;2023-02-28T08:21:27;97268.19;;;4.80
40624;BMP280;26325;48.594;11.650;2023-02-28T08:23:53;97270.41;;;4.90
40624;BMP280;26325;48.594;11.650;2023-02-28T08:26:25;97273.94;;;4.56
40624;BMP280;26325;48.594;11.650;2023-02-28T08:28:53;97271.09;;;4.71
40624;BMP280;26325;48.594;11.650;2023-02-28T08:31:19;97269.84;;;4.67
40624;BMP280;26325;48.594;11.650;2023-02-28T08:33:49;97279.13;;;5.01
40624;BMP280;26325;48.594;11.650;2023-02-28T08:36:19;97278.09;;;4.90
40624;BMP280;26325;48.594;11.650;2023-02-28T08:38:44;97277.13;;;4.97
40624;BMP280;26325;48.594;11.650;2023-02-28T08:41:12;97278.28;;;4.61
40624;BMP280;26325;48.594;11.650;2023-02-28T08:43:40;97277.25;;;4.56
40624;BMP280;26325;48.594;11.650;2023-02-28T08:46:06;97272.19;;;4.95
40624;BMP280;26325;48.594;11.650;2023-02-28T08:48:35;97278.75;;;4.71
40624;BMP280;26325;48.594;11.650;2023-02-28T08:51:05;97274.25;;;5.13
40624;BMP280;26325;48.594;11.650;2023-02-28T08:53:39;97280.31;;;4.99
40624;BMP280;26325;48.594;11.650;2023-02-28T08:56:06;97286.63;;;5.03
40624;BMP280;26325;48.594;11.650;2023-02-28T08:58:32;97285.03;;;4.69
40624;BMP280;26325;48.594;11.650;2023-02-28T09:00:57;97290.03;;;4.83
40624;BMP280;26325;48.594;11.650;2023-02-28T09:03:23;97289.03;;;4.77
40624;BMP280;26325;48.594;11.650;2023-02-28T09:05:56;97299.72;;;4.87
40624;BMP280;26325;48.594;11.650;2023-02-28T09:08:22;97288.16;;;4.97
40624;BMP280;26325;48.594;11.650;2023-02-28T09:10:48;97293.78;;;5.20
40624;BMP280;26325;48.594;11.650;2023-02-28T09:13:13;97303.59;;;5.10
40624;BMP280;26325;48.594;11.650;2023-02-28T09:15:39;97304.28;;;5.31
40624;BMP280;26325;48.594;11.650;2023-02-28T09:18:07;97308.00;;;5.29
40624;BMP280;26325;48.594;11.650;2023-02-28T09:20:33;97301.25;;;5.15
40624;BMP280;26325;48.594;11.650;2023-02-28T09:23:00;97295.44;;;6.05
40624;BMP280;26325;48.594;11.650;2023-02-28T09:25:25;97297.59;;;5.82
40624;BMP280;26325;48.594;11.650;2023-02-28T09:27:53;97292.47;;;5.76
40624;BMP280;26325;48.594;11.650;2023-02-28T09:30:19;97289.94;;;6.20
40624;BMP280;26325;48.594;11.650;2023-02-28T09:32:44;97283.41;;;6.11
40624;BMP280;26325;48.594;11.650;2023-02-28T09:35:17;97284.81;;;6.20
40624;BMP280;26325;48.594;11.650;2023-02-28T09:37:43;97288.56;;;5.99
40624;BMP280;26325;48.594;11.650;2023-02-28T09:40:10;97293.69;;;6.37
40624;BMP280;26325;48.594;11.650;2023-02-28T09:42:37;97291.53;;;6.08
40624;BMP280;26325;48.594;11.650;2023-02-28T09:45:11;97300.03;;;6.53
40624;BMP280;26325;48.594;11.650;2023-02-28T09:47:43;97302.69;;;7.15
40624;BMP280;26325;48.594;11.650;2023-02-28T09:52:41;97303.19;;;6.68
40624;BMP280;26325;48.594;11.650;2023-02-28T09:55:28;97303.25;;;7.23
40624;BMP280;26325;48.594;11.650;2023-02-28T09:57:55;97303.94;;;6.87
40624;BMP280;26325;48.594;11.650;2023-02-28T10:00:35;97299.38;;;6.89
40624;BMP280;26325;48.594;11.650;2023-02-28T10:06:12;97291.19;;;7.24
40624;BMP280;26325;48.594;11.650;2023-02-28T10:09:11;97295.28;;;7.44
40624;BMP280;26325;48.594;11.650;2023-02-28T10:11:40;97289.53;;;7.42
40624;BMP280;26325;48.594;11.650;2023-02-28T10:14:15;97310.66;;;6.38
40624;BMP280;26325;48.594;11.650;2023-02-28T10:16:46;97310.53;;;7.33
40624;BMP280;26325;48.594;11.650;2023-02-28T10:24:35;97318.38;;;6.57
40624;BMP280;26325;48.594;11.650;2023-02-28T10:29:59;97321.38;;;7.47
40624;BMP280;26325;48.594;11.650;2023-02-28T10:32:33;97302.75;;;7.52
40624;BMP280;26325;48.594;11.650;2023-02-28T10:35:18;97304.50;;;7.58
40624;BMP280;26325;48.594;11.650;2023-02-28T10:37:51;97301.59;;;7.91
40624;BMP280;26325;48.594;11.650;2023-02-28T10:45:38;97299.25;;;8.43
40624;BMP280;26325;48.594;11.650;2023-02-28T10:48:22;97301.66;;;8.86
40624;BMP280;26325;48.594;11.650;2023-02-28T10:53:32;97296.97;;;9.01
40624;BMP280;26325;48.594;11.650;2023-02-28T10:58:58;97295.09;;;9.08
40624;BMP280;26325;48.594;11.650;2023-02-28T11:09:39;97298.81;;;9.29
40624;BMP280;26325;48.594;11.650;2023-02-28T11:12:20;97292.63;;;9.65
40624;BMP280;26325;48.594;11.650;2023-02-28T11:14:52;97286.09;;;9.98
40624;BMP280;26325;48.594;11.650;2023-02-28T11:17:29;97294.25;;;9.31
40624;BMP280;26325;48.594;11.650;2023-02-28T11:20:07;97297.41;;;9.15
40624;BMP280;26325;48.594;11.650;2023-02-28T11:22:45;97296.47;;;9.45
40624;BMP280;26325;48.594;11.650;2023-02-28T11:25:29;97294.97;;;10.53
40624;BMP280;26325;48.594;11.650;2023-02-28T11:28:00;97294.78;;;10.88
40624;BMP280;26325;48.594;11.650;2023-02-28T11:32:59;97294.59;;;9.87
40624;BMP280;26325;48.594;11.650;2023-02-28T11:35:32;97302.16;;;9.82
40624;BMP280;26325;48.594;11.650;2023-02-28T11:38:01;97303.31;;;9.86
40624;BMP280;26325;48.594;11.650;2023-02-28T11:43:22;97291.63;;;9.84
40624;BMP280;26325;48.594;11.650;2023-02-28T11:49:06;97291.31;;;9.28
40624;BMP280;26325;48.594;11.650;2023-02-28T11:51:48;97276.59;;;8.52
40624;BMP280;26325;48.594;11.650;2023-02-28T11:54:23;97279.47;;;9.38
40624;BMP280;26325;48.594;11.650;2023-02-28T11:56:57;97286.19;;;9.56
40624;BMP280;26325;48.594;11.650;2023-02-28T11:59:46;97278.44;;;10.31
40624;BMP280;26325;48.594;11.650;2023-02-28T12:02:22;97282.53;;;10.72
40624;BMP280;26325;48.594;11.650;2023-02-28T12:21:22;97254.47;;;11.48
40624;BMP280;26325;48.594;11.650;2023-02-28T12:29:21;97269.09;;;10.19
40624;BMP280;26325;48.594;11.650;2023-02-28T12:31:52;97260.75;;;10.91
40624;BMP280;26325;48.594;11.650;2023-02-28T12:34:27;97249.84;;;10.89
40624;BMP280;26325;48.594;11.650;2023-02-28T12:36:55;97247.34;;;10.60
40624;BMP280;26325;48.594;11.650;2023-02-28T12:39:26;97262.47;;;9.66
40624;BMP280;26325;48.594;11.650;2023-02-28T12:42:24;97257.78;;;9.74
40624;BMP280;26325;48.594;11.650;2023-02-28T12:44:54;97258.03;;;10.86
40624;BMP280;26325;48.594;11.650;2023-02-28T12:47:21;97256.94;;;10.82
40624;BMP280;26325;48.594;11.650;2023-02-28T12:49:49;97241.34;;;11.27
40624;BMP280;26325;48.594;11.650;2023-02-28T12:52:45;97247.34;;;11.05
40624;BMP280;26325;48.594;11.650;2023-02-28T12:55:17;97244.28;;;11.42
40624;BMP280;26325;48.594;11.650;2023-02-28T13:03:48;97253.22;;;11.01
40624;BMP280;26325;48.594;11.650;2023-02-28T13:09:15;97226.44;;;12.75
40624;BMP280;26325;48.594;11.650;2023-02-28T13:11:44;97234.22;;;12.75
40624;BMP280;26325;48.594;11.650;2023-02-28T13:24:56;97225.63;;;12.58
40624;BMP280;26325;48.594;11.650;2023-02-28T13:27:24;97223.78;;;12.70
40624;BMP280;26325;48.594;11.650;2023-02-28T13:29:59;97234.56;;;11.60
40624;BMP280;26325;48.594;11.650;2023-02-28T13:32:31;97227.78;;;12.45
40624;BMP280;26325;48.594;11.650;2023-02-28T13:40:07;97229.47;;;13.67
40624;BMP280;26325;48.594;11.650;2023-02-28T13:42:48;97224.59;;;13.29
40624;BMP280;26325;48.594;11.650;2023-02-28T13:45:28;97217.41;;;14.34
40624;BMP280;26325;48.594;11.650;2023-02-28T13:48:05;97212.56;;;14.78
40624;BMP280;26325;48.594;11.650;2023-02-28T13:50:40;97213.03;;;14.09
40624;BMP280;26325;48.594;11.650;2023-02-28T14:06:18;97217.97;;;15.12
40624;BMP280;26325;48.594;11.650;2023-02-28T14:09:03;97226.59;;;14.82
40624;BMP280;26325;48.594;11.650;2023-02-28T14:11:38;97226.44;;;14.27
40624;BMP280;26325;48.594;11.650;2023-02-28T14:14:06;97220.75;;;14.96
40624;BMP280;26325;48.594;11.650;2023-02-28T14:16:50;97218.78;;;14.77
40624;BMP280;26325;48.594;11.650;2023-02-28T14:19:21;97225.19;;;14.95
40624;BMP280;26325;48.594;11.650;2023-02-28T14:38:26;97215.81;;;13.55
40624;BMP280;26325;48.594;11.650;2023-02-28T14:40:55;97213.31;;;13.39
40624;BMP280;26325;48.594;11.650;2023-02-28T14:43:25;97218.34;;;13.09
40624;BMP280;26325;48.594;11.650;2023-02-28T14:45:52;97223.75;;;13.23
40624;BMP280;26325;48.594;11.650;2023-02-28T14:48:19;97219.50;;;12.48
40624;BMP280;26325;48.594;11.650;2023-02-28T14:50:53;97229.97;;;11.28
40624;BMP280;26325;48.594;11.650;2023-02-28T14:53:21;97224.31;;;11.53
40624;BMP280;26325;48.594;11.650;2023-02-28T14:55:48;97224.88;;;12.26
40624;BMP280;26325;48.594;11.650;2023-02-28T14:58:30;97224.44;;;11.58
40624;BMP280;26325;48.594;11.650;2023-02-28T15:01:00;97231.91;;;11.43
40624;BMP280;26325;48.594;11.650;2023-02-28T15:05:56;97225.47;;;11.73
40624;BMP280;26325;48.594;11.650;2023-02-28T15:08:22;97221.34;;;11.88
40624;BMP280;26325;48.594;11.650;2023-02-28T15:11:27;97224.63;;;12.11
40624;BMP280;26325;48.594;11.650;2023-02-28T15:13:51;97229.66;;;12.18
40624;BMP280;26325;48.594;11.650;2023-02-28T15:16:20;97237.72;;;10.89
40624;BMP280;26325;48.594;11.650;2023-02-28T15:18:53;97239.78;;;11.26
40624;BMP280;26325;48.594;11.650;2023-02-28T15:21:30;97239.47;;;9.82
40624;BMP280;26325;48.594;11.650;2023-02-28T15:24:06;97244.19;;;10.36
40624;BMP280;26325;48.594;11.650;2023-02-28T15:26:34;97233.75;;;11.09
40624;BMP280;26325;48.594;11.650;2023-02-28T15:29:04;97238.22;;;10.13
40624;BMP280;26325;48.594;11.650;2023-02-28T15:31:43;97243.84;;;9.35
40624;BMP280;26325;48.594;11.650;2023-02-28T15:34:25;97244.13;;;8.92
40624;BMP280;26325;48.594;11.650;2023-02-28T15:36:52;97258.78;;;8.02
40624;BMP280;26325;48.594;11.650;2023-02-28T15:39:23;97246.72;;;8.03
40624;BMP280;26325;48.594;11.650;2023-02-28T15:41:49;97245.13;;;8.02
40624;BMP280;26325;48.594;11.650;2023-02-28T15:44:25;97255.44;;;7.65
40624;BMP280;26325;48.594;11.650;2023-02-28T15:47:17;97258.22;;;7.64
40624;BMP280;26325;48.594;11.650;2023-02-28T15:54:56;97266.38;;;6.99
40624;BMP280;26325;48.594;11.650;2023-02-28T15:57:23;97260.84;;;7.02
40624;BMP280;26325;48.594;11.650;2023-02-28T15:59:56;97266.34;;;7.05
40624;BMP280;26325;48.594;11.650;2023-02-28T16:02:31;97267.94;;;7.00
40624;BMP280;26325;48.594;11.650;2023-02-28T16:05:45;97273.94;;;6.75
40624;BMP280;26325;48.594;11.650;2023-02-28T16:07:53;97269.75;;;6.81
40624;BMP280;26325;48.594;11.650;2023-02-28T16:10:20;97268.19;;;6.80
40624;BMP280;26325;48.594;11.650;2023-02-28T16:12:46;97264.09;;;6.47
40624;BMP280;26325;48.594;11.650;2023-02-28T16:15:28;97272.41;;;6.36
40624;BMP280;26325;48.594;11.650;2023-02-28T16:17:54;97269.22;;;6.15
40624;BMP280;26325;48.594;11.650;2023-02-28T16:20:26;97266.06;;;6.07
40624;BMP280;26325;48.594;11.650;2023-02-28T16:22:51;97264.50;;;6.00
40624;BMP280;26325;48.594;11.650;2023-02-28T16:25:19;97269.19;;;5.84
40624;BMP280;26325;48.594;11.650;2023-02-28T16:27:50;97277.03;;;5.70
40624;BMP280;26325;48.594;11.650;2023-02-28T16:30:23;97277.66;;;5.71
40624;BMP280;26325;48.594;11.650;2023-02-28T16:32:53;97276.50;;;5.34
40624;BMP280;26325;48.594;11.650;2023-02-28T16:35:19;97266.22;;;5.22
40624;BMP280;26325;48.594;11.650;2023-02-28T16:37:45;97286.34;;;4.92
40624;BMP280;26325;48.594;11.650;2023-02-28T16:40:21;97284.84;;;5.03
40624;BMP280;26325;48.594;11.650;2023-02-28T16:42:49;97289.47;;;4.87
40624;BMP280;26325;48.594;11.650;2023-02-28T16:45:21;97289.63;;;4.79
40624;BMP280;26325;48.594;11.650;2023-02-28T16:47:50;97287.41;;;4.70
40624;BMP280;26325;48.594;11.650;2023-02-28T16:50:21;97299.78;;;4.67
40624;BMP280;26325;48.594;11.650;2023-02-28T16:52:47;97306.59;;;4.54
40624;BMP280;26325;48.594;11.650;2023-02-28T16:55:15;97304.75;;;4.48
40624;BMP280;26325;48.594;11.650;2023-02-28T16:57:40;97308.56;;;4.31
40624;BMP280;26325;48.594;11.650;2023-02-28T17:00:11;97297.13;;;4.27